Hlavní strana
METAR-TAF:

METAR-TAF

Letiště :

Caracas, Venezuela

zeměpisná šířka: 10-36N, zeměpisná délka: 066-59W, výška: 43 m

Aktuální stav počasí

Zpráva byla vytvořena před 24 minutami, v 18:00 UTC
Severovýchodní vítr 7 kt
Teplota 29°C
Vlhkost vzduchu 74%
Tlak 1012 hPa
Viditelnost 10 km a více
Skoro jasno ve výšce 1600 ft

METAR: SVMI 211800Z 05007KT 9999 FEW016 29/24 Q1012

Čas: 14:24 (18:24 UTC)

Předpověď počasí

Zpráva byla vytvořena před 8 hodinami a 24 minutami, v 10:00 UTC
Předpověď platná od 21 v 12 UTC do 22 v 12 UTC
Východní vítr 10 kt
Viditelnost 10 km a více
Polojasno ve výšce 1600 ft
Změna
od 21 v 12 UTC do 21 v 16 UTC
Severoseverovýchodní vítr 10 kt

TAF: SVMI 211000Z 2112/2212 09010KT 9999 SCT016 TX33/19Z TN24/09Z BECMG 2112/2116 02010KT

Stav a předpovědi počasí z více než 4 000 letišť (zprávy METAR a TAF).

Červené a žluté tečky na mapě představují dostupné meteorologické stanice.

Když kurzor umístíte na tečku, zobrazí se název stanice.

Pak kliknutím zobrazíte stav a předpověď počasí.

Chcete-li změnit mapu, kliknutím na zelené tlačítko se znaménkem +mapu přiblížíte, kliknutím na zelené tlačítko se znaménkem – mapu oddálíte a kliknutím na zelené šipky přejdete na sousední mapy.


METAR-TAF: